Terminal Aerodrome Forecast
Issued by NWS Fort Wayne, IN

Home | Current Version | Previous Version | Text Only | Print | Product List | Glossary Off
Versions: 1 2 3 4 5 6 7 8 9 10 11 12 13 14 15 16 17 18 19 20

000
FTUS43 KIWX 192300 RRA
TAFFWA
TAF
KFWA 192339Z 2000/2024 10016G22KT 5SM -RA BR OVC006
      TEMPO 2000/2002 2SM RA BR
     FM200400 22015G22KT 6SM BR OVC004
     FM201300 24016G22KT 4SM -SHRA BR OVC010
     FM201800 27018G28KT P6SM OVC025=

USA.gov is the U.S. government's official web portal to all federal, state and local government web resources and services.